Time;durP1;ratioP1;P1;durP2;ratioP2;P2;SDS_P1;SDS_P2;PMS_P1;PMS_P2;Temp;Humidity;BMP_temperature;BMP_pressure;BME280_temperature;BME280_humidity;BME280_pressure;Samples;Min_cycle;Max_cycle;Signal;HPM_P1;HPM_P2
2023/12/12 00:00:37;;;;;;;4.82;1.75;;;19.10;53.10;;;;;;8355654;28;20758;-51
2023/12/12 00:04:37;;;;;;;7.13;1.75;;;19.10;52.80;;;;;;8354104;28;20036;-55
2023/12/12 00:08:38;;;;;;;5.22;2.22;;;19.10;52.90;;;;;;8355243;28;20041;-51
2023/12/12 00:12:39;;;;;;;2.92;1.80;;;19.00;52.80;;;;;;8355251;28;20037;-52
2023/12/12 00:16:40;;;;;;;3.88;1.75;;;19.00;52.90;;;;;;8343532;28;20037;-50
2023/12/12 00:20:40;;;;;;;9.02;2.05;;;19.10;52.90;;;;;;8327972;28;20037;-53
2023/12/12 00:24:41;;;;;;;4.50;2.00;;;19.00;52.80;;;;;;8327747;28;20037;-47
2023/12/12 00:28:42;;;;;;;4.57;1.80;;;19.00;52.90;;;;;;8352579;28;20033;-53
2023/12/12 00:32:42;;;;;;;3.45;1.58;;;19.10;52.80;;;;;;8359143;28;20029;-53
2023/12/12 00:36:43;;;;;;;4.57;1.80;;;19.10;52.90;;;;;;8327157;28;20507;-49
2023/12/12 00:40:53;;;;;;;3.08;1.45;;;19.00;52.90;;;;;;8327067;28;20065;-54
2023/12/12 00:44:53;;;;;;;3.67;1.60;;;19.00;52.90;;;;;;8327126;28;20045;-54
2023/12/12 00:48:54;;;;;;;4.53;1.88;;;19.00;52.90;;;;;;8326954;28;20120;-52
2023/12/12 00:52:55;;;;;;;4.88;1.83;;;19.00;52.90;;;;;;8326498;28;20039;-55
2023/12/12 00:56:55;;;;;;;5.07;1.92;;;19.00;53.00;;;;;;8337325;28;20044;-54
2023/12/12 01:00:56;;;;;;;4.00;1.77;;;18.90;53.00;;;;;;8359862;28;20044;-53
2023/12/12 01:04:57;;;;;;;4.45;1.67;;;18.90;53.00;;;;;;8359793;28;20069;-54
2023/12/12 01:08:58;;;;;;;5.10;2.00;;;18.90;53.00;;;;;;8359474;28;20124;-55
2023/12/12 01:13:00;;;;;;;4.07;1.85;;;18.90;53.00;;;;;;8359643;28;20464;-54
2023/12/12 01:17:03;;;;;;;5.93;2.00;;;18.90;53.00;;;;;;8359458;28;20674;-54
2023/12/12 01:21:05;;;;;;;5.53;1.63;;;18.80;53.00;;;;;;8359875;28;20044;-54
2023/12/12 01:25:07;;;;;;;5.10;1.75;;;18.80;53.10;;;;;;8359421;28;20036;-54
2023/12/12 01:29:09;;;;;;;5.93;1.90;;;18.80;53.10;;;;;;8359269;28;20117;-55
2023/12/12 01:33:09;;;;;;;2.85;1.40;;;18.80;53.10;;;;;;8359235;28;20037;-55
2023/12/12 01:37:10;;;;;;;2.65;1.48;;;18.80;53.10;;;;;;8358972;28;20057;-49
2023/12/12 01:41:11;;;;;;;1.95;1.30;;;18.80;53.10;;;;;;8359197;28;20055;-49
2023/12/12 01:45:12;;;;;;;3.88;1.88;;;18.80;53.10;;;;;;8359072;28;20082;-51
2023/12/12 01:49:13;;;;;;;3.92;1.92;;;18.80;53.10;;;;;;8358765;28;20091;-51
2023/12/12 01:53:15;;;;;;;2.70;1.95;;;18.80;53.10;;;;;;8358963;28;20068;-52
2023/12/12 01:57:16;;;;;;;;;;;18.80;53.10;;;;;;8359693;28;20033;-51
2023/12/12 02:01:18;;;;;;;4.10;1.58;;;18.80;53.10;;;;;;8358746;28;19904;-52
2023/12/12 02:05:19;;;;;;;5.05;1.77;;;18.80;53.20;;;;;;8362462;28;20021;-50
2023/12/12 02:09:21;;;;;;;2.35;1.40;;;18.80;53.10;;;;;;8364702;28;20025;-51
2023/12/12 02:13:22;;;;;;;2.53;1.40;;;18.70;53.10;;;;;;8364846;28;20036;-51
2023/12/12 02:17:22;;;;;;;4.22;2.10;;;18.70;53.10;;;;;;8364519;28;20071;-50
2023/12/12 02:21:23;;;;;;;3.53;1.70;;;18.70;53.10;;;;;;8364429;28;20044;-51
2023/12/12 02:25:24;;;;;;;1.98;1.48;;;18.70;53.20;;;;;;8364485;28;20052;-49
2023/12/12 02:29:25;;;;;;;2.63;1.65;;;18.70;53.10;;;;;;8363905;28;20076;-50
2023/12/12 02:33:25;;;;;;;2.80;1.40;;;18.70;53.10;;;;;;8364164;28;20033;-51
2023/12/12 02:37:26;;;;;;;3.10;1.58;;;18.70;53.20;;;;;;8363898;28;20532;-51
2023/12/12 02:41:26;;;;;;;2.10;1.33;;;18.70;53.20;;;;;;8363527;28;20033;-50
2023/12/12 02:45:27;;;;;;;4.25;1.67;;;18.70;53.20;;;;;;8363906;28;20052;-51
2023/12/12 02:49:28;;;;;;;3.05;1.30;;;18.70;53.20;;;;;;8363544;28;20037;-49
2023/12/12 02:53:29;;;;;;;2.67;1.20;;;18.70;53.20;;;;;;8363388;28;20261;-48
2023/12/12 02:57:29;;;;;;;2.45;1.60;;;18.70;53.20;;;;;;8363300;28;20540;-50
2023/12/12 03:01:30;;;;;;;3.83;1.95;;;18.70;53.20;;;;;;8363362;28;20029;-50
2023/12/12 03:05:31;;;;;;;1.80;1.25;;;18.70;53.20;;;;;;8362969;28;20039;-49
2023/12/12 03:09:32;;;;;;;2.47;1.63;;;18.70;53.20;;;;;;8363036;28;20116;-49
2023/12/12 03:13:33;;;;;;;2.92;1.55;;;18.70;53.10;;;;;;8362710;28;20025;-50
2023/12/12 03:17:33;;;;;;;1.98;1.45;;;18.70;53.10;;;;;;8362764;28;20032;-49
2023/12/12 03:21:34;;;;;;;2.70;1.38;;;18.70;53.20;;;;;;8362684;28;20045;-48
2023/12/12 03:25:35;;;;;;;2.28;1.23;;;18.60;53.10;;;;;;8362453;28;20033;-51
2023/12/12 03:29:35;;;;;;;2.17;1.45;;;18.60;53.20;;;;;;8361934;28;20413;-50
2023/12/12 03:33:36;;;;;;;2.20;1.20;;;18.60;53.10;;;;;;8362371;28;20040;-49
2023/12/12 03:37:37;;;;;;;4.57;1.45;;;18.60;53.10;;;;;;8361912;28;20064;-49
2023/12/12 03:41:38;;;;;;;3.10;1.25;;;18.60;53.10;;;;;;8361578;28;20521;-48
2023/12/12 03:45:39;;;;;;;1.60;1.30;;;18.60;53.10;;;;;;8361697;28;20151;-49
2023/12/12 03:49:40;;;;;;;1.95;1.40;;;18.60;53.10;;;;;;8361716;28;20033;-49
2023/12/12 03:53:40;;;;;;;2.50;1.23;;;18.60;53.10;;;;;;8361456;28;20104;-48
2023/12/12 03:57:41;;;;;;;2.15;1.20;;;18.60;53.10;;;;;;8360216;28;20037;-50
2023/12/12 04:01:48;;;;;;;2.40;1.20;;;18.60;53.20;;;;;;8362134;28;20033;-48
2023/12/12 04:05:48;;;;;;;2.53;1.58;;;18.60;53.10;;;;;;8361201;28;20044;-48
2023/12/12 04:09:49;;;;;;;2.47;1.27;;;18.60;53.10;;;;;;8361155;28;20045;-48
2023/12/12 04:13:51;;;;;;;2.33;1.40;;;18.60;53.20;;;;;;8361085;28;20470;-48
2023/12/12 04:17:51;;;;;;;2.55;1.27;;;18.60;53.10;;;;;;8360758;28;20422;-47
2023/12/12 04:21:52;;;;;;;2.47;1.15;;;18.60;53.20;;;;;;8360894;28;20114;-51
2023/12/12 04:25:53;;;;;;;2.60;1.10;;;18.60;53.20;;;;;;8360054;28;20029;-49
2023/12/12 04:29:54;;;;;;;4.22;1.08;;;18.60;53.10;;;;;;8360403;28;20090;-49
2023/12/12 04:33:54;;;;;;;3.10;1.48;;;18.60;53.10;;;;;;8360396;28;20471;-48
2023/12/12 04:37:55;;;;;;;2.83;1.23;;;18.60;53.10;;;;;;8360007;28;20085;-51
2023/12/12 04:41:56;;;;;;;2.67;1.30;;;18.60;53.10;;;;;;8360312;28;20389;-50
2023/12/12 04:45:56;;;;;;;3.58;1.63;;;18.70;53.20;;;;;;8360169;28;20496;-49
2023/12/12 04:49:57;;;;;;;3.17;2.03;;;18.60;53.10;;;;;;8359895;28;20075;-48
2023/12/12 04:53:58;;;;;;;2.47;1.42;;;18.60;53.10;;;;;;8359897;28;20029;-48
2023/12/12 04:57:58;;;;;;;2.35;1.50;;;18.60;53.10;;;;;;8358606;28;20063;-49
2023/12/12 05:01:59;;;;;;;1.20;1.08;;;18.60;53.20;;;;;;8359731;28;20037;-49
2023/12/12 05:06:00;;;;;;;2.65;1.45;;;18.60;53.10;;;;;;8359716;28;20040;-48
2023/12/12 05:10:01;;;;;;;;;;;18.60;53.10;;;;;;8360403;28;20043;-52
2023/12/12 05:14:04;;;;;;;1.37;0.90;;;18.60;53.10;;;;;;8359570;28;19908;-52
2023/12/12 05:18:07;;;;;;;1.65;1.20;;;18.60;53.10;;;;;;8358339;28;20067;-50
2023/12/12 05:22:08;;;;;;;2.42;1.20;;;18.70;53.00;;;;;;8359660;28;20796;-52
2023/12/12 05:26:09;;;;;;;1.88;1.23;;;18.70;52.80;;;;;;8359173;28;20414;-51
2023/12/12 05:30:11;;;;;;;1.65;1.08;;;18.80;52.80;;;;;;8359998;28;20025;-51
2023/12/12 05:34:12;;;;;;;2.08;1.35;;;18.80;52.70;;;;;;8359401;28;20026;-52
2023/12/12 05:38:12;;;;;;;1.85;1.20;;;18.80;52.60;;;;;;8359069;28;20077;-52
2023/12/12 05:42:13;;;;;;;1.67;1.35;;;18.80;52.50;;;;;;8365920;28;20134;-52
2023/12/12 05:46:14;;;;;;;2.33;1.10;;;18.90;52.50;;;;;;8365609;28;20033;-52
2023/12/12 05:50:15;;;;;;;2.42;1.30;;;18.90;52.50;;;;;;8365328;28;20073;-50
2023/12/12 05:54:16;;;;;;;1.33;0.90;;;18.90;52.50;;;;;;8364228;28;20397;-52
2023/12/12 05:58:17;;;;;;;1.80;1.10;;;18.90;52.50;;;;;;8364140;28;20028;-50
2023/12/12 06:02:17;;;;;;;1.92;1.23;;;18.90;52.40;;;;;;8365536;28;20040;-52
2023/12/12 06:06:20;;;;;;;2.42;1.10;;;18.90;52.40;;;;;;8364841;28;20043;-52
2023/12/12 06:10:21;;;;;;;1.48;0.85;;;18.90;52.40;;;;;;8364742;28;20033;-51
2023/12/12 06:14:22;;;;;;;2.30;0.93;;;18.90;52.40;;;;;;8364758;28;20032;-51
2023/12/12 06:18:23;;;;;;;2.45;1.10;;;18.90;52.40;;;;;;8364705;28;20037;-51
2023/12/12 06:22:24;;;;;;;1.85;1.00;;;18.90;52.40;;;;;;8364411;28;20314;-50
2023/12/12 06:26:26;;;;;;;1.60;1.27;;;18.90;52.40;;;;;;8364470;28;20610;-51
2023/12/12 06:30:27;;;;;;;2.05;1.15;;;18.90;52.40;;;;;;8364114;28;20123;-51
2023/12/12 06:34:28;;;;;;;1.35;1.13;;;18.90;52.30;;;;;;8364552;28;20033;-53
2023/12/12 06:38:28;;;;;;;1.55;1.20;;;18.90;52.30;;;;;;8364022;28;20449;-51
2023/12/12 06:42:30;;;;;;;3.22;1.42;;;18.90;52.30;;;;;;8363775;28;20120;-52
2023/12/12 06:46:30;;;;;;;1.10;0.80;;;18.90;52.30;;;;;;8363826;28;20041;-51
2023/12/12 06:50:31;;;;;;;1.58;1.00;;;18.90;52.30;;;;;;8363126;28;20114;-52
2023/12/12 06:54:32;;;;;;;1.77;0.90;;;18.90;52.30;;;;;;8363500;28;20025;-49
2023/12/12 06:58:33;;;;;;;1.25;0.90;;;18.90;52.30;;;;;;8363239;28;20124;-52
2023/12/12 07:02:34;;;;;;;1.13;0.77;;;18.90;52.30;;;;;;8363319;28;20029;-49
2023/12/12 07:06:34;;;;;;;2.75;1.05;;;18.90;52.30;;;;;;8363119;28;20040;-52
2023/12/12 07:10:35;;;;;;;2.00;1.27;;;18.90;52.30;;;;;;8363031;28;20029;-53
2023/12/12 07:14:36;;;;;;;1.45;0.80;;;19.00;52.30;;;;;;8363557;28;20104;-51
2023/12/12 07:18:39;;;;;;;2.15;1.38;;;19.00;52.30;;;;;;8362601;28;20033;-51
2023/12/12 07:22:40;;;;;;;1.55;1.00;;;19.00;52.30;;;;;;8362646;28;20032;-51
2023/12/12 07:26:45;;;;;;;1.17;0.90;;;19.00;52.30;;;;;;8362591;28;20037;-52
2023/12/12 07:30:45;;;;;;;2.88;1.58;;;18.90;52.20;;;;;;8362853;28;20029;-52
2023/12/12 07:34:46;;;;;;;1.60;1.13;;;18.90;52.30;;;;;;8362378;28;20117;-54
2023/12/12 07:38:47;;;;;;;1.70;1.00;;;18.90;52.30;;;;;;8362008;28;20052;-54
2023/12/12 07:42:47;;;;;;;1.20;1.00;;;19.00;52.30;;;;;;8361984;28;20044;-54
2023/12/12 07:46:48;;;;;;;1.75;1.08;;;18.90;52.30;;;;;;8361926;28;20064;-55
2023/12/12 07:50:49;;;;;;;2.65;0.95;;;18.90;52.20;;;;;;8361703;28;20060;-54
2023/12/12 07:54:50;;;;;;;1.02;0.90;;;19.00;52.30;;;;;;8361621;28;20053;-56
2023/12/12 07:58:50;;;;;;;0.80;0.60;;;19.00;52.30;;;;;;8361507;28;20422;-54
2023/12/12 08:02:52;;;;;;;2.45;0.85;;;19.00;52.30;;;;;;8360476;28;20115;-54
2023/12/12 08:06:52;;;;;;;1.40;1.20;;;18.90;52.20;;;;;;8361076;28;20517;-54
2023/12/12 08:10:53;;;;;;;2.22;0.80;;;19.00;52.30;;;;;;8360885;28;20463;-53
2023/12/12 08:14:55;;;;;;;2.10;1.05;;;19.00;52.20;;;;;;8361232;28;20033;-54
2023/12/12 08:18:56;;;;;;;1.73;1.10;;;19.00;52.30;;;;;;8360919;28;20057;-55
2023/12/12 08:22:57;;;;;;;1.20;1.00;;;19.00;52.30;;;;;;8360723;28;20029;-54
2023/12/12 08:26:57;;;;;;;;;;;19.00;52.30;;;;;;8360994;28;20367;-55
2023/12/12 08:30:58;;;;;;;1.57;1.10;;;19.00;52.30;;;;;;8360511;28;19916;-56
2023/12/12 08:34:59;;;;;;;1.73;0.90;;;19.00;52.30;;;;;;8360540;28;20036;-55
2023/12/12 08:39:00;;;;;;;1.45;1.00;;;19.00;52.30;;;;;;8360113;28;20057;-52
2023/12/12 08:43:01;;;;;;;1.38;0.90;;;19.00;52.20;;;;;;8360274;28;20025;-52
2023/12/12 08:47:02;;;;;;;1.55;1.13;;;19.00;52.20;;;;;;8360087;28;20037;-50
2023/12/12 08:51:03;;;;;;;1.17;0.90;;;19.00;52.20;;;;;;8359975;28;20503;-49
2023/12/12 08:55:05;;;;;;;1.63;1.05;;;19.00;52.20;;;;;;8360167;28;20083;-51
2023/12/12 08:59:06;;;;;;;1.00;0.85;;;19.00;52.20;;;;;;8359694;28;20029;-53
2023/12/12 09:03:07;;;;;;;1.25;0.95;;;19.00;52.20;;;;;;8359645;28;20059;-52
2023/12/12 09:07:08;;;;;;;1.33;0.88;;;19.00;52.20;;;;;;8359723;28;20127;-51
2023/12/12 09:11:09;;;;;;;1.27;1.17;;;19.00;52.20;;;;;;8359631;28;20043;-52
2023/12/12 09:15:10;;;;;;;1.25;0.95;;;19.00;52.20;;;;;;8365190;28;20060;-51
2023/12/12 09:19:14;;;;;;;1.15;0.90;;;19.00;52.20;;;;;;8365187;28;20028;-52
2023/12/12 09:23:16;;;;;;;1.45;1.08;;;19.00;52.20;;;;;;8366701;28;20406;-53
2023/12/12 09:27:17;;;;;;;0.95;0.73;;;19.00;52.20;;;;;;8366184;28;20040;-52
2023/12/12 09:31:26;;;;;;;0.77;0.73;;;18.90;52.20;;;;;;8366031;28;20041;-50
2023/12/12 09:35:27;;;;;;;0.95;0.90;;;19.00;52.30;;;;;;8366026;28;20032;-50
2023/12/12 09:39:27;;;;;;;1.38;0.75;;;18.90;52.20;;;;;;8365728;28;20528;-52
2023/12/12 09:43:28;;;;;;;1.95;1.00;;;18.90;52.30;;;;;;8365702;28;20441;-50
2023/12/12 09:47:30;;;;;;;1.55;1.08;;;19.00;52.30;;;;;;8365554;28;20075;-54
2023/12/12 09:51:31;;;;;;;1.15;1.05;;;18.90;52.20;;;;;;8365397;28;20484;-55
2023/12/12 09:55:32;;;;;;;1.52;0.70;;;18.90;52.30;;;;;;8365338;28;20098;-54
2023/12/12 09:59:32;;;;;;;1.17;0.77;;;19.00;52.30;;;;;;8365210;28;20032;-54
2023/12/12 10:03:34;;;;;;;1.02;0.82;;;18.90;52.20;;;;;;8365148;28;20044;-55
2023/12/12 10:07:36;;;;;;;1.30;1.10;;;18.90;52.30;;;;;;8363723;28;20057;-54
2023/12/12 10:11:37;;;;;;;1.02;0.90;;;19.00;52.30;;;;;;8364729;28;20029;-55
2023/12/12 10:15:38;;;;;;;1.25;0.80;;;19.00;52.30;;;;;;8364825;28;20044;-55
2023/12/12 10:19:38;;;;;;;0.95;0.80;;;18.90;52.30;;;;;;8364897;28;20037;-56
2023/12/12 10:23:49;;;;;;;1.25;0.82;;;18.90;52.30;;;;;;8364150;28;20541;-54
2023/12/12 10:27:52;;;;;;;1.10;0.90;;;19.00;52.20;;;;;;8364409;28;20017;-55
2023/12/12 10:31:53;;;;;;;1.85;0.80;;;18.90;52.20;;;;;;8364220;28;20532;-54
2023/12/12 10:35:54;;;;;;;2.58;0.90;;;19.00;52.30;;;;;;8363936;28;20364;-55
2023/12/12 10:39:55;;;;;;;1.52;1.23;;;18.90;52.20;;;;;;8364640;28;20425;-55
2023/12/12 10:44:01;;;;;;;;;;;18.90;52.20;;;;;;8364264;28;20531;-53
2023/12/12 10:48:06;;;;;;;1.20;0.93;;;19.00;52.30;;;;;;8363641;28;19915;-53
2023/12/12 10:52:08;;;;;;;2.00;0.90;;;19.00;52.30;;;;;;8363614;28;20040;-55
2023/12/12 10:56:10;;;;;;;1.20;0.85;;;19.00;52.30;;;;;;8363265;28;20044;-55
2023/12/12 11:00:16;;;;;;;0.70;0.70;;;19.00;52.20;;;;;;8363881;28;20029;-52
2023/12/12 11:04:17;;;;;;;1.63;0.90;;;19.00;52.20;;;;;;8363754;28;20037;-50
2023/12/12 11:08:19;;;;;;;3.53;1.00;;;19.00;52.20;;;;;;8362831;28;20368;-50
2023/12/12 11:12:20;;;;;;;1.40;0.80;;;19.00;52.20;;;;;;8362959;28;20029;-50
2023/12/12 11:16:21;;;;;;;2.58;1.00;;;19.00;52.20;;;;;;8362587;28;20029;-53
2023/12/12 11:20:22;;;;;;;0.98;0.70;;;19.00;52.20;;;;;;8362875;28;20178;-51
2023/12/12 11:25:08;;;;;;;1.25;0.85;;;19.00;52.10;;;;;;8362732;28;20040;-51
2023/12/12 11:29:14;;;;;;;1.15;0.82;;;19.00;52.20;;;;;;8362091;28;20040;-52
2023/12/12 11:33:16;;;;;;;0.80;0.80;;;19.00;52.20;;;;;;8362387;28;20040;-50
2023/12/12 11:37:16;;;;;;;0.93;0.70;;;19.00;52.20;;;;;;8362567;28;20414;-51
2023/12/12 11:41:17;;;;;;;1.13;1.00;;;19.00;52.20;;;;;;8361683;28;20052;-49
2023/12/12 11:45:34;;;;;;;1.40;0.80;;;19.00;52.20;;;;;;8362044;28;20033;-51
2023/12/12 11:49:35;;;;;;;0.88;0.70;;;19.00;52.20;;;;;;8362068;28;20090;-53
2023/12/12 11:53:39;;;;;;;1.25;0.70;;;19.00;52.20;;;;;;8361426;28;20108;-51
2023/12/12 11:57:40;;;;;;;1.08;0.73;;;19.00;52.20;;;;;;8361315;28;20154;-52
2023/12/12 12:01:41;;;;;;;0.82;0.82;;;19.00;52.20;;;;;;8361854;28;20037;-51
2023/12/12 12:05:42;;;;;;;0.82;0.70;;;19.00;52.20;;;;;;8361455;28;20697;-50
2023/12/12 12:09:43;;;;;;;0.80;0.80;;;19.00;52.20;;;;;;8361445;28;20113;-55
2023/12/12 12:13:43;;;;;;;0.98;0.75;;;19.00;52.20;;;;;;8361006;28;20032;-52
2023/12/12 12:17:44;;;;;;;1.05;0.80;;;19.00;52.20;;;;;;8360902;28;20125;-55
2023/12/12 12:21:45;;;;;;;1.52;0.90;;;19.00;52.20;;;;;;8360943;28;20049;-55
2023/12/12 12:25:45;;;;;;;0.70;0.60;;;19.00;52.20;;;;;;8360645;28;20437;-55
2023/12/12 12:30:05;;;;;;;1.48;1.00;;;19.00;52.20;;;;;;8360554;28;20521;-54
2023/12/12 12:34:20;;;;;;;1.00;0.70;;;19.00;52.20;;;;;;8360514;28;20103;-53
2023/12/12 12:38:25;;;;;;;1.05;0.60;;;19.00;52.20;;;;;;8360164;28;20400;-55
2023/12/12 12:42:36;;;;;;;1.35;0.65;;;18.90;52.20;;;;;;8359209;28;20036;-56
2023/12/12 12:46:37;;;;;;;1.33;0.80;;;18.90;52.20;;;;;;8360309;28;20033;-55
2023/12/12 12:50:42;;;;;;;1.45;0.90;;;18.90;52.30;;;;;;8359673;28;20486;-55
2023/12/12 12:54:42;;;;;;;1.58;0.93;;;18.90;52.30;;;;;;8360090;28;20035;-53
2023/12/12 12:58:43;;;;;;;1.02;0.95;;;18.90;52.30;;;;;;8359523;28;20497;-54
2023/12/12 13:02:44;;;;;;;0.75;0.65;;;18.90;52.30;;;;;;8359920;28;20025;-53
2023/12/12 13:06:45;;;;;;;0.93;0.65;;;18.90;52.30;;;;;;8359943;28;20087;-54
2023/12/12 13:10:45;;;;;;;1.33;0.73;;;18.90;52.30;;;;;;8359560;28;20116;-54
2023/12/12 13:14:46;;;;;;;0.77;0.60;;;19.00;52.30;;;;;;8359843;28;20399;-51
2023/12/12 13:18:47;;;;;;;1.15;0.90;;;19.00;52.30;;;;;;8359641;28;20029;-51
2023/12/12 13:22:47;;;;;;;0.80;0.60;;;19.00;52.20;;;;;;8359606;28;20532;-52
2023/12/12 13:26:52;;;;;;;1.38;0.90;;;19.00;52.20;;;;;;8359406;28;20037;-50
2023/12/12 13:30:53;;;;;;;0.63;0.63;;;19.00;52.70;;;;;;8358139;28;20037;-51
2023/12/12 13:34:54;;;;;;;0.90;0.82;;;19.00;52.10;;;;;;8359654;28;20091;-52
2023/12/12 13:38:55;;;;;;;0.95;0.70;;;19.00;52.10;;;;;;8358797;28;20175;-53
2023/12/12 13:42:56;;;;;;;1.13;0.70;;;19.00;52.10;;;;;;8359253;28;20033;-52
2023/12/12 13:46:57;;;;;;;1.27;0.80;;;19.00;52.10;;;;;;8359272;28;20044;-52
2023/12/12 13:50:57;;;;;;;;;;;19.00;52.10;;;;;;8359466;28;20065;-52
2023/12/12 13:54:58;;;;;;;0.77;0.70;;;19.00;52.10;;;;;;8358954;28;19908;-52
2023/12/12 13:58:59;;;;;;;0.70;0.70;;;19.00;52.20;;;;;;8357751;28;20102;-51
2023/12/12 14:02:59;;;;;;;1.85;0.90;;;19.00;52.20;;;;;;8365720;28;20070;-51
2023/12/12 14:07:00;;;;;;;1.58;0.80;;;19.00;52.20;;;;;;8364901;28;20402;-52
2023/12/12 14:11:01;;;;;;;1.30;0.85;;;19.00;52.20;;;;;;8364869;28;20581;-50
2023/12/12 14:15:02;;;;;;;0.88;0.70;;;19.00;52.20;;;;;;8364954;28;20025;-50
2023/12/12 14:19:03;;;;;;;0.70;0.52;;;19.00;52.20;;;;;;8364714;28;20123;-52
2023/12/12 14:23:04;;;;;;;0.95;0.88;;;19.00;52.10;;;;;;8364678;28;20029;-52
2023/12/12 14:27:06;;;;;;;0.95;0.85;;;19.00;52.10;;;;;;8364522;28;20116;-51
2023/12/12 14:31:07;;;;;;;0.60;0.52;;;19.00;52.10;;;;;;8364228;28;20029;-54
2023/12/12 14:35:08;;;;;;;2.10;0.88;;;19.00;52.10;;;;;;8363192;28;20033;-54
2023/12/12 14:39:10;;;;;;;1.55;0.85;;;19.00;52.10;;;;;;8362382;28;20056;-54
2023/12/12 14:43:10;;;;;;;0.60;0.60;;;19.00;52.10;;;;;;8364150;28;20487;-54
2023/12/12 14:47:11;;;;;;;1.45;0.88;;;19.00;52.20;;;;;;8363660;28;20437;-54
2023/12/12 14:51:21;;;;;;;0.63;0.63;;;19.00;52.10;;;;;;8363624;28;20025;-54
2023/12/12 14:55:21;;;;;;;0.60;0.60;;;19.00;52.20;;;;;;8363543;28;20056;-53
2023/12/12 14:59:22;;;;;;;0.65;0.60;;;19.00;52.20;;;;;;8363937;28;20505;-54
2023/12/12 15:03:23;;;;;;;1.27;0.60;;;19.00;52.10;;;;;;8363328;28;20033;-54
2023/12/12 15:07:23;;;;;;;0.98;0.88;;;19.00;52.10;;;;;;8363537;28;20047;-53
2023/12/12 15:11:24;;;;;;;0.70;0.70;;;19.00;52.10;;;;;;8362697;28;20375;-54
2023/12/12 15:15:25;;;;;;;1.20;0.80;;;19.00;52.10;;;;;;8363242;28;20033;-52
2023/12/12 15:19:25;;;;;;;0.90;0.70;;;19.00;52.20;;;;;;8362635;28;20045;-51
2023/12/12 15:23:26;;;;;;;0.77;0.77;;;19.00;52.20;;;;;;8362585;28;20033;-53
2023/12/12 15:27:29;;;;;;;1.60;0.80;;;19.00;52.20;;;;;;8362546;28;20041;-53
2023/12/12 15:31:29;;;;;;;0.80;0.80;;;19.00;52.20;;;;;;8362391;28;20068;-52
2023/12/12 15:35:31;;;;;;;0.50;0.50;;;19.00;52.20;;;;;;8362304;28;20029;-55
2023/12/12 15:39:32;;;;;;;1.17;0.70;;;19.00;52.10;;;;;;8362294;28;20123;-54
2023/12/12 15:43:33;;;;;;;0.73;0.73;;;19.00;52.10;;;;;;8362081;28;20108;-53
2023/12/12 15:47:37;;;;;;;1.67;0.60;;;19.00;52.10;;;;;;8361905;28;20037;-54
2023/12/12 15:51:38;;;;;;;0.98;0.73;;;19.00;52.20;;;;;;8361853;28;20025;-54
2023/12/12 15:55:39;;;;;;;1.25;0.80;;;19.00;52.20;;;;;;8361356;28;20040;-53
2023/12/12 15:59:41;;;;;;;0.90;0.60;;;19.00;52.20;;;;;;8361621;28;20044;-53
2023/12/12 16:03:42;;;;;;;;;;;19.00;52.20;;;;;;8362413;28;20036;-54
2023/12/12 16:07:43;;;;;;;0.77;0.77;;;19.00;52.20;;;;;;8361259;28;19905;-52
2023/12/12 16:11:46;;;;;;;1.42;0.63;;;19.00;52.30;;;;;;8361256;28;20033;-53
2023/12/12 16:15:47;;;;;;;0.52;0.52;;;19.00;52.30;;;;;;8361282;28;20029;-54
2023/12/12 16:19:48;;;;;;;0.90;0.70;;;19.00;52.30;;;;;;8360891;28;20127;-52
2023/12/12 16:23:49;;;;;;;0.82;0.82;;;18.90;52.20;;;;;;8360186;28;20072;-54
2023/12/12 16:27:49;;;;;;;0.85;0.60;;;18.90;52.30;;;;;;8361005;28;20037;-54
2023/12/12 16:31:50;;;;;;;0.60;0.60;;;18.90;52.30;;;;;;8360315;28;20371;-54
2023/12/12 16:35:51;;;;;;;0.60;0.60;;;18.90;52.30;;;;;;8360371;28;20150;-53
2023/12/12 16:39:55;;;;;;;1.33;0.85;;;18.90;52.30;;;;;;8359194;28;20052;-54
2023/12/12 16:43:56;;;;;;;1.00;0.70;;;18.90;52.30;;;;;;8360382;28;20039;-54
2023/12/12 16:47:57;;;;;;;1.50;0.70;;;18.90;52.30;;;;;;8359239;28;20119;-53
2023/12/12 16:51:58;;;;;;;0.65;0.50;;;18.90;52.30;;;;;;8357811;28;20032;-50
2023/12/12 16:55:58;;;;;;;1.02;0.68;;;19.00;53.60;;;;;;8360102;28;20033;-53
2023/12/12 16:59:59;;;;;;;0.88;0.80;;;19.00;53.30;;;;;;8360461;28;20044;-52
2023/12/12 17:04:00;;;;;;;3.92;0.82;;;19.00;52.90;;;;;;8359858;28;20036;-53
2023/12/12 17:08:02;;;;;;;1.58;0.60;;;19.10;52.80;;;;;;8358201;28;20037;-53
2023/12/12 17:12:04;;;;;;;1.50;0.75;;;19.10;53.30;;;;;;8357674;28;20140;-50
2023/12/12 17:16:05;;;;;;;2.70;0.80;;;19.10;53.20;;;;;;8356272;28;20765;-51
2023/12/12 17:20:06;;;;;;;;;;;19.20;53.10;;;;;;8326676;28;20399;-51
2023/12/12 17:24:10;;;;;;;0.93;0.75;;;19.20;53.30;;;;;;8326492;28;19909;-52
2023/12/12 17:28:11;;;;;;;2.70;1.00;;;19.20;53.20;;;;;;8347222;28;20041;-53
2023/12/12 17:32:13;;;;;;;9.60;1.15;;;19.50;52.60;;;;;;8358713;28;20060;-54
2023/12/12 17:36:13;;;;;;;3.40;1.00;;;19.50;52.40;;;;;;8364032;28;20073;-53
2023/12/12 17:40:14;;;;;;;2.28;0.85;;;19.40;53.00;;;;;;8366151;28;20040;-53
2023/12/12 17:44:15;;;;;;;4.55;0.77;;;19.30;53.30;;;;;;8352782;28;20060;-54
2023/12/12 17:48:16;;;;;;;6.10;0.80;;;19.30;53.40;;;;;;8331710;28;20479;-53
2023/12/12 17:52:17;;;;;;;2.08;0.93;;;19.20;53.30;;;;;;8351618;28;20022;-53
2023/12/12 17:56:17;;;;;;;3.03;0.70;;;19.30;53.00;;;;;;8332372;28;20082;-53
2023/12/12 18:00:18;;;;;;;2.58;0.90;;;19.30;53.00;;;;;;8339069;28;20535;-53
2023/12/12 18:04:20;;;;;;;4.15;0.77;;;19.30;53.40;;;;;;8345223;28;20033;-53
2023/12/12 18:08:20;;;;;;;;;;;19.30;53.30;;;;;;8348510;28;20499;-53
2023/12/12 18:12:21;;;;;;;5.07;1.00;;;19.30;53.30;;;;;;8342104;28;20462;-53
2023/12/12 18:16:22;;;;;;;6.38;1.15;;;19.30;53.20;;;;;;8340773;28;20086;-53
2023/12/12 18:20:22;;;;;;;2.35;0.90;;;19.40;53.30;;;;;;8350857;28;20029;-53
2023/12/12 18:24:24;;;;;;;2.55;0.82;;;19.40;53.10;;;;;;8343671;28;20053;-53
2023/12/12 18:28:25;;;;;;;1.65;1.10;;;19.40;53.10;;;;;;8345232;28;20041;-52
2023/12/12 18:32:26;;;;;;;3.80;0.77;;;19.50;53.30;;;;;;8341107;28;20033;-51
2023/12/12 18:36:27;;;;;;;2.22;0.90;;;19.50;53.30;;;;;;8362866;28;20044;-50
2023/12/12 18:40:28;;;;;;;6.35;1.02;;;19.60;53.60;;;;;;8342010;28;20116;-47
2023/12/12 18:44:29;;;;;;;3.80;1.00;;;19.60;53.60;;;;;;8345636;28;20061;-52
2023/12/12 18:48:32;;;;;;;11.77;0.90;;;19.60;53.90;;;;;;8338332;28;20104;-53
2023/12/12 18:52:33;;;;;;;5.13;0.90;;;19.60;53.40;;;;;;8348401;28;20037;-52
2023/12/12 18:56:34;;;;;;;5.88;1.38;;;19.60;53.20;;;;;;8343458;28;20114;-46
2023/12/12 19:00:34;;;;;;;5.13;1.02;;;19.70;53.30;;;;;;8374700;28;20028;-46
2023/12/12 19:04:35;;;;;;;8.35;1.15;;;19.70;53.60;;;;;;8355625;28;20029;-54
2023/12/12 19:08:36;;;;;;;3.45;1.27;;;19.70;54.70;;;;;;8372415;28;20712;-53
2023/12/12 19:12:41;;;;;;;7.68;1.52;;;19.80;55.40;;;;;;8362496;28;20029;-48
2023/12/12 19:16:41;;;;;;;10.02;1.25;;;19.90;55.40;;;;;;8343627;28;20453;-51
2023/12/12 19:20:42;;;;;;;6.78;1.33;;;19.90;55.40;;;;;;8339567;28;20095;-53
2023/12/12 19:24:43;;;;;;;5.13;1.23;;;20.00;55.60;;;;;;8350237;28;20048;-54
2023/12/12 19:28:44;;;;;;;11.77;1.10;;;19.90;56.20;;;;;;8350648;28;20040;-52
2023/12/12 19:32:44;;;;;;;6.18;1.25;;;20.00;56.60;;;;;;8350972;28;20175;-52
2023/12/12 19:36:48;;;;;;;5.18;1.00;;;19.90;56.20;;;;;;8354994;28;20045;-54
2023/12/12 19:40:49;;;;;;;5.47;1.35;;;19.90;55.40;;;;;;8339578;28;20087;-54
2023/12/12 19:44:50;;;;;;;;;;;20.00;55.30;;;;;;8346719;28;20068;-57
2023/12/12 19:48:51;;;;;;;5.03;1.00;;;19.90;55.00;;;;;;8352952;28;19967;-55
2023/12/12 19:52:52;;;;;;;10.00;1.20;;;19.80;55.20;;;;;;8335794;28;20075;-52
2023/12/12 19:56:53;;;;;;;8.63;1.00;;;19.80;55.30;;;;;;8333742;28;20079;-50
2023/12/12 20:00:54;;;;;;;4.85;0.85;;;19.80;55.50;;;;;;8332277;28;20049;-54
2023/12/12 20:04:54;;;;;;;6.32;0.80;;;19.90;55.40;;;;;;8349867;28;20481;-53
2023/12/12 20:08:55;;;;;;;4.55;1.30;;;19.80;55.30;;;;;;8375397;28;20036;-51
2023/12/12 20:12:56;;;;;;;4.88;0.90;;;19.90;55.40;;;;;;8352598;28;20028;-50
2023/12/12 20:16:57;;;;;;;2.95;0.80;;;19.80;54.80;;;;;;8359826;28;20120;-50
2023/12/12 20:21:00;;;;;;;3.90;0.90;;;19.80;54.80;;;;;;8343433;28;20506;-54
2023/12/12 20:25:01;;;;;;;4.50;1.15;;;19.80;55.10;;;;;;8349682;28;20083;-54
2023/12/12 20:29:01;;;;;;;5.22;1.25;;;19.80;55.10;;;;;;8355287;28;20119;-53
2023/12/12 20:33:02;;;;;;;3.20;0.80;;;19.90;54.90;;;;;;8386167;28;20025;-53
2023/12/12 20:37:03;;;;;;;4.40;1.42;;;19.80;54.90;;;;;;8361645;28;20053;-50
2023/12/12 20:41:06;;;;;;;7.70;0.90;;;19.80;54.90;;;;;;8378054;28;20032;-55
2023/12/12 20:45:07;;;;;;;3.90;0.82;;;19.90;55.40;;;;;;8391381;28;20611;-50
2023/12/12 20:49:08;;;;;;;4.10;1.25;;;20.00;54.70;;;;;;8391296;28;20043;-46
2023/12/12 20:53:09;;;;;;;3.05;0.65;;;20.00;54.90;;;;;;8391313;28;20044;-48
2023/12/12 20:57:11;;;;;;;;;;;20.00;54.90;;;;;;8368132;28;20032;-51
2023/12/12 21:01:12;;;;;;;3.38;0.95;;;20.00;55.30;;;;;;8385730;28;19909;-49